Terminal Aerodrome Forecast
Issued by NWS Sterling, VA

Home | Current Version | Previous Version | Text Only | Print | Product List | Glossary On
Versions: 1 2 3 4 5 6 7 8 9 10 11 12 13 14 15 16 17 18 19 20 21 22 23 24 25
000
FTUS41 KLWX 290332 AAA
TAFBWI
TAF AMD
KBWI 290332Z 2904/3006 09009KT P6SM VCTS SCT060CB SCT100
      TEMPO 2904/2905 -SHRA SCT060 BKN100
     FM290500 08008KT P6SM SCT100
     FM291200 07008KT P6SM BKN070
     FM292000 14007KT P6SM BKN070
     FM300000 15008KT P6SM SCT250=

USA.gov is the U.S. government's official web portal to all federal, state and local government web resources and services.